La Mendieta, Argentina
Current Conditions -  °F | °C
As of 9:00 PM on Tuesday 25 Nov 2014 (Local Time) from SASJ Reporting Station
Overcast Overcast  
Wind Chill: 70°   Ceiling: 3000
Heat Index: 70°   Visibility: 6mi
Dew Point: 61°   Wind: 3mph
Humidity: 73%   Direction: 270°W
Pressure: 29.91"   Gusts: NA
Location:  24.32°S, 64.97°W
Report Text: SASJ 260000Z 27003KT 9999 FEW015 OVC03021/16 Q1013
Loading
Personal Weather Stations






























Interactive Weather Map New forecast layout! Learn more

10-Day Weather Forecast

Advertisements
Track Severe Weather on mobile